sensor_id;sensor_type;location;lat;lon;timestamp;pressure;altitude;pressure_sealevel;temperature;humidity
58690;BME280;44470;53.206;-6.106;2023-02-25T00:01:20;101905.06;;;17.63;52.54
58690;BME280;44470;53.206;-6.106;2023-02-25T00:03:45;101913.06;;;17.63;52.37
58690;BME280;44470;53.206;-6.106;2023-02-25T00:06:12;101913.06;;;17.63;52.72
58690;BME280;44470;53.206;-6.106;2023-02-25T00:08:41;101916.63;;;17.65;52.46
58690;BME280;44470;53.206;-6.106;2023-02-25T00:11:07;101913.03;;;17.60;52.40
58690;BME280;44470;53.206;-6.106;2023-02-25T00:13:33;101908.63;;;17.63;52.45
58690;BME280;44470;53.206;-6.106;2023-02-25T00:16:02;101905.97;;;17.65;52.37
58690;BME280;44470;53.206;-6.106;2023-02-25T00:18:28;101913.97;;;17.65;52.40
58690;BME280;44470;53.206;-6.106;2023-02-25T00:20:55;101907.75;;;17.64;52.70
58690;BME280;44470;53.206;-6.106;2023-02-25T00:23:21;101914.84;;;17.64;52.43
58690;BME280;44470;53.206;-6.106;2023-02-25T00:25:46;101918.38;;;17.64;52.51
58690;BME280;44470;53.206;-6.106;2023-02-25T00:28:12;101913.06;;;17.64;52.42
58690;BME280;44470;53.206;-6.106;2023-02-25T00:30:39;101918.41;;;17.66;52.70
58690;BME280;44470;53.206;-6.106;2023-02-25T00:33:06;101916.63;;;17.65;52.32
58690;BME280;44470;53.206;-6.106;2023-02-25T00:35:33;101922.84;;;17.65;52.52
58690;BME280;44470;53.206;-6.106;2023-02-25T00:38:03;101915.75;;;17.66;52.74
58690;BME280;44470;53.206;-6.106;2023-02-25T00:40:31;101913.09;;;17.66;52.83
58690;BME280;44470;53.206;-6.106;2023-02-25T00:42:57;101902.41;;;17.63;52.76
58690;BME280;44470;53.206;-6.106;2023-02-25T00:45:22;101911.31;;;17.65;52.70
58690;BME280;44470;53.206;-6.106;2023-02-25T00:47:48;101914.88;;;17.67;52.92
58690;BME280;44470;53.206;-6.106;2023-02-25T00:50:13;101915.75;;;17.66;53.03
58690;BME280;44470;53.206;-6.106;2023-02-25T00:52:39;101917.50;;;17.65;52.75
58690;BME280;44470;53.206;-6.106;2023-02-25T00:55:05;101914.84;;;17.65;52.50
58690;BME280;44470;53.206;-6.106;2023-02-25T00:57:31;101916.63;;;17.65;52.91
58690;BME280;44470;53.206;-6.106;2023-02-25T00:59:56;101921.97;;;17.65;52.88
58690;BME280;44470;53.206;-6.106;2023-02-25T01:02:22;101922.84;;;17.65;52.78
58690;BME280;44470;53.206;-6.106;2023-02-25T01:04:48;101928.16;;;17.65;52.78
58690;BME280;44470;53.206;-6.106;2023-02-25T01:07:13;101922.84;;;17.64;52.76
58690;BME280;44470;53.206;-6.106;2023-02-25T01:09:41;101923.75;;;17.66;52.93
58690;BME280;44470;53.206;-6.106;2023-02-25T01:12:06;101912.16;;;17.61;52.92
58690;BME280;44470;53.206;-6.106;2023-02-25T01:14:32;101913.09;;;17.66;52.87
58690;BME280;44470;53.206;-6.106;2023-02-25T01:16:57;101897.06;;;17.61;53.00
58690;BME280;44470;53.206;-6.106;2023-02-25T01:19:26;101893.56;;;17.64;53.13
58690;BME280;44470;53.206;-6.106;2023-02-25T01:21:55;101903.31;;;17.65;53.21
58690;BME280;44470;53.206;-6.106;2023-02-25T01:24:24;101904.19;;;17.65;53.20
58690;BME280;44470;53.206;-6.106;2023-02-25T01:26:55;101896.19;;;17.62;52.96
58690;BME280;44470;53.206;-6.106;2023-02-25T01:29:26;101903.28;;;17.63;53.15
58690;BME280;44470;53.206;-6.106;2023-02-25T01:31:55;101901.56;;;17.67;53.14
58690;BME280;44470;53.206;-6.106;2023-02-25T01:34:22;101913.09;;;17.66;53.10
58690;BME280;44470;53.206;-6.106;2023-02-25T01:36:48;101910.44;;;17.67;53.39
58690;BME280;44470;53.206;-6.106;2023-02-25T01:39:15;101912.22;;;17.67;53.28
58690;BME280;44470;53.206;-6.106;2023-02-25T01:41:42;101901.53;;;17.65;53.26
58690;BME280;44470;53.206;-6.106;2023-02-25T01:46:48;101911.34;;;17.68;53.12
58690;BME280;44470;53.206;-6.106;2023-02-25T01:49:40;101914.00;;;17.68;53.30
58690;BME280;44470;53.206;-6.106;2023-02-25T01:52:22;101919.31;;;17.68;53.43
58690;BME280;44470;53.206;-6.106;2023-02-25T01:54:54;101905.06;;;17.63;53.41
58690;BME280;44470;53.206;-6.106;2023-02-25T01:57:22;101905.97;;;17.66;53.24
58690;BME280;44470;53.206;-6.106;2023-02-25T01:59:49;101907.78;;;17.69;53.20
58690;BME280;44470;53.206;-6.106;2023-02-25T02:02:19;101908.66;;;17.69;53.34
58690;BME280;44470;53.206;-6.106;2023-02-25T02:04:46;101903.34;;;17.69;53.11
58690;BME280;44470;53.206;-6.106;2023-02-25T02:07:18;101901.56;;;17.68;53.18
58690;BME280;44470;53.206;-6.106;2023-02-25T02:09:44;101906.88;;;17.68;53.41
58690;BME280;44470;53.206;-6.106;2023-02-25T02:12:25;101914.91;;;17.70;53.32
58690;BME280;44470;53.206;-6.106;2023-02-25T02:14:52;101908.66;;;17.69;53.17
58690;BME280;44470;53.206;-6.106;2023-02-25T02:17:27;101916.66;;;17.69;53.14
58690;BME280;44470;53.206;-6.106;2023-02-25T02:34:57;101935.31;;;17.72;52.99
58690;BME280;44470;53.206;-6.106;2023-02-25T02:37:45;101942.41;;;17.73;53.25
58690;BME280;44470;53.206;-6.106;2023-02-25T02:40:24;101935.28;;;17.69;52.71
58690;BME280;44470;53.206;-6.106;2023-02-25T02:45:37;101940.66;;;17.74;52.69
58690;BME280;44470;53.206;-6.106;2023-02-25T02:48:29;101936.22;;;17.73;52.63
58690;BME280;44470;53.206;-6.106;2023-02-25T02:51:00;101937.09;;;17.73;52.82
58690;BME280;44470;53.206;-6.106;2023-02-25T02:53:36;101932.69;;;17.74;53.03
58690;BME280;44470;53.206;-6.106;2023-02-25T02:56:06;101930.84;;;17.68;52.83
58690;BME280;44470;53.206;-6.106;2023-02-25T02:58:46;101946.03;;;17.77;52.80
58690;BME280;44470;53.206;-6.106;2023-02-25T03:01:35;101940.66;;;17.76;52.44
58690;BME280;44470;53.206;-6.106;2023-02-25T03:04:06;101942.47;;;17.77;52.61
58690;BME280;44470;53.206;-6.106;2023-02-25T03:06:36;101939.81;;;17.77;52.42
58690;BME280;44470;53.206;-6.106;2023-02-25T03:09:15;101949.56;;;17.76;52.69
58690;BME280;44470;53.206;-6.106;2023-02-25T03:11:43;101948.69;;;17.77;52.38
58690;BME280;44470;53.206;-6.106;2023-02-25T03:14:11;101954.88;;;17.73;52.62
58690;BME280;44470;53.206;-6.106;2023-02-25T03:16:40;101963.78;;;17.78;52.64
58690;BME280;44470;53.206;-6.106;2023-02-25T03:19:14;101964.69;;;17.80;52.42
58690;BME280;44470;53.206;-6.106;2023-02-25T03:21:45;101967.34;;;17.79;52.46
58690;BME280;44470;53.206;-6.106;2023-02-25T03:24:19;101969.09;;;17.78;52.74
58690;BME280;44470;53.206;-6.106;2023-02-25T03:26:51;101957.53;;;17.75;52.63
58690;BME280;44470;53.206;-6.106;2023-02-25T03:29:21;101967.34;;;17.80;52.57
58690;BME280;44470;53.206;-6.106;2023-02-25T03:31:58;101957.56;;;17.79;52.69
58690;BME280;44470;53.206;-6.106;2023-02-25T03:34:34;101956.69;;;17.80;52.60
58690;BME280;44470;53.206;-6.106;2023-02-25T03:37:04;101952.28;;;17.82;52.64
58690;BME280;44470;53.206;-6.106;2023-02-25T03:39:35;101963.81;;;17.81;52.84
58690;BME280;44470;53.206;-6.106;2023-02-25T03:42:03;101960.22;;;17.76;52.44
58690;BME280;44470;53.206;-6.106;2023-02-25T03:44:33;101967.38;;;17.82;52.45
58690;BME280;44470;53.206;-6.106;2023-02-25T03:47:01;101967.34;;;17.80;52.34
58690;BME280;44470;53.206;-6.106;2023-02-25T03:49:32;101973.53;;;17.76;52.58
58690;BME280;44470;53.206;-6.106;2023-02-25T03:52:03;101975.34;;;17.79;52.36
58690;BME280;44470;53.206;-6.106;2023-02-25T03:54:30;101977.09;;;17.78;52.57
58690;BME280;44470;53.206;-6.106;2023-02-25T03:56:55;101977.13;;;17.81;52.58
58690;BME280;44470;53.206;-6.106;2023-02-25T03:59:21;101984.22;;;17.82;52.34
58690;BME280;44470;53.206;-6.106;2023-02-25T04:01:53;101974.47;;;17.81;52.19
58690;BME280;44470;53.206;-6.106;2023-02-25T04:04:19;101984.22;;;17.82;52.38
58690;BME280;44470;53.206;-6.106;2023-02-25T04:06:45;101978.91;;;17.82;52.22
58690;BME280;44470;53.206;-6.106;2023-02-25T04:09:12;101984.25;;;17.84;52.30
58690;BME280;44470;53.206;-6.106;2023-02-25T04:11:38;101991.38;;;17.85;52.24
58690;BME280;44470;53.206;-6.106;2023-02-25T04:14:03;101987.78;;;17.81;52.34
58690;BME280;44470;53.206;-6.106;2023-02-25T04:16:29;102002.00;;;17.83;52.15
58690;BME280;44470;53.206;-6.106;2023-02-25T04:18:56;102000.22;;;17.82;52.46
58690;BME280;44470;53.206;-6.106;2023-02-25T04:21:31;102002.88;;;17.82;52.17
58690;BME280;44470;53.206;-6.106;2023-02-25T04:23:57;102006.44;;;17.84;52.23
58690;BME280;44470;53.206;-6.106;2023-02-25T04:26:28;102011.78;;;17.84;52.36
58690;BME280;44470;53.206;-6.106;2023-02-25T04:28:54;102006.44;;;17.84;52.38
58690;BME280;44470;53.206;-6.106;2023-02-25T04:31:20;102005.50;;;17.79;52.19
58690;BME280;44470;53.206;-6.106;2023-02-25T04:33:45;102009.97;;;17.83;52.38
58690;BME280;44470;53.206;-6.106;2023-02-25T04:36:27;102014.44;;;17.84;52.22
58690;BME280;44470;53.206;-6.106;2023-02-25T04:38:53;102004.69;;;17.85;52.31
58690;BME280;44470;53.206;-6.106;2023-02-25T04:41:20;102008.22;;;17.84;52.45
58690;BME280;44470;53.206;-6.106;2023-02-25T04:43:45;102009.97;;;17.83;52.28
58690;BME280;44470;53.206;-6.106;2023-02-25T04:46:11;102019.75;;;17.84;52.06
58690;BME280;44470;53.206;-6.106;2023-02-25T04:48:38;102028.66;;;17.86;52.28
58690;BME280;44470;53.206;-6.106;2023-02-25T04:51:06;102026.00;;;17.86;52.26
58690;BME280;44470;53.206;-6.106;2023-02-25T04:53:32;102018.84;;;17.82;52.26
58690;BME280;44470;53.206;-6.106;2023-02-25T04:56:05;102034.88;;;17.87;52.28
58690;BME280;44470;53.206;-6.106;2023-02-25T04:58:32;102044.63;;;17.86;52.11
58690;BME280;44470;53.206;-6.106;2023-02-25T05:01:00;102041.97;;;17.86;52.28
58690;BME280;44470;53.206;-6.106;2023-02-25T05:03:26;102049.97;;;17.86;52.45
58690;BME280;44470;53.206;-6.106;2023-02-25T05:05:54;102054.41;;;17.87;52.56
58690;BME280;44470;53.206;-6.106;2023-02-25T05:08:20;102055.28;;;17.86;52.33
58690;BME280;44470;53.206;-6.106;2023-02-25T05:10:46;102060.63;;;17.90;52.33
58690;BME280;44470;53.206;-6.106;2023-02-25T05:13:11;102061.50;;;17.84;52.36
58690;BME280;44470;53.206;-6.106;2023-02-25T05:15:37;102065.06;;;17.87;51.96
58690;BME280;44470;53.206;-6.106;2023-02-25T05:18:02;102058.84;;;17.89;52.00
58690;BME280;44470;53.206;-6.106;2023-02-25T05:20:28;102057.97;;;17.90;52.17
58690;BME280;44470;53.206;-6.106;2023-02-25T05:22:54;102060.63;;;17.90;52.18
58690;BME280;44470;53.206;-6.106;2023-02-25T05:25:19;102058.84;;;17.89;52.30
58690;BME280;44470;53.206;-6.106;2023-02-25T05:27:45;102060.63;;;17.88;52.18
58690;BME280;44470;53.206;-6.106;2023-02-25T05:30:11;102067.75;;;17.91;52.19
58690;BME280;44470;53.206;-6.106;2023-02-25T05:32:37;102061.53;;;17.87;52.28
58690;BME280;44470;53.206;-6.106;2023-02-25T05:35:04;102061.53;;;17.89;52.19
58690;BME280;44470;53.206;-6.106;2023-02-25T05:37:33;102069.53;;;17.92;52.40
58690;BME280;44470;53.206;-6.106;2023-02-25T05:39:59;102070.44;;;17.92;52.29
58690;BME280;44470;53.206;-6.106;2023-02-25T05:42:26;102062.47;;;17.92;52.29
58690;BME280;44470;53.206;-6.106;2023-02-25T05:44:51;102059.78;;;17.92;52.54
58690;BME280;44470;53.206;-6.106;2023-02-25T05:47:17;102057.09;;;17.91;52.25
58690;BME280;44470;53.206;-6.106;2023-02-25T05:49:43;102063.34;;;17.93;51.80
58690;BME280;44470;53.206;-6.106;2023-02-25T05:52:09;102053.56;;;17.92;52.00
58690;BME280;44470;53.206;-6.106;2023-02-25T05:54:35;102064.22;;;17.92;52.25
58690;BME280;44470;53.206;-6.106;2023-02-25T05:57:01;102048.19;;;17.89;52.15
58690;BME280;44470;53.206;-6.106;2023-02-25T05:59:26;102054.47;;;17.92;52.13
58690;BME280;44470;53.206;-6.106;2023-02-25T06:01:52;102060.66;;;17.93;52.25
58690;BME280;44470;53.206;-6.106;2023-02-25T06:04:17;102062.44;;;17.94;52.22
58690;BME280;44470;53.206;-6.106;2023-02-25T06:06:43;102057.13;;;17.94;52.10
58690;BME280;44470;53.206;-6.106;2023-02-25T06:09:17;102066.03;;;17.96;52.16
58690;BME280;44470;53.206;-6.106;2023-02-25T06:11:47;102066.03;;;17.96;52.42
58690;BME280;44470;53.206;-6.106;2023-02-25T06:14:14;102073.13;;;17.97;52.42
58690;BME280;44470;53.206;-6.106;2023-02-25T06:16:40;102067.81;;;17.97;52.43
58690;BME280;44470;53.206;-6.106;2023-02-25T06:19:06;102074.00;;;17.96;52.37
58690;BME280;44470;53.206;-6.106;2023-02-25T06:21:33;102074.03;;;17.97;51.98
58690;BME280;44470;53.206;-6.106;2023-02-25T06:24:00;102078.47;;;17.97;52.35
58690;BME280;44470;53.206;-6.106;2023-02-25T06:26:26;102074.03;;;17.97;52.18
58690;BME280;44470;53.206;-6.106;2023-02-25T06:28:52;102076.72;;;17.99;52.21
58690;BME280;44470;53.206;-6.106;2023-02-25T06:31:18;102079.34;;;17.96;52.22
58690;BME280;44470;53.206;-6.106;2023-02-25T06:33:45;102082.03;;;17.99;51.98
58690;BME280;44470;53.206;-6.106;2023-02-25T06:36:11;102088.25;;;17.98;52.21
58690;BME280;44470;53.206;-6.106;2023-02-25T06:38:38;102089.16;;;18.00;52.03
58690;BME280;44470;53.206;-6.106;2023-02-25T06:41:09;102086.50;;;17.98;52.43
58690;BME280;44470;53.206;-6.106;2023-02-25T06:43:38;102095.41;;;18.00;52.08
58690;BME280;44470;53.206;-6.106;2023-02-25T06:46:08;102095.41;;;18.00;52.33
58690;BME280;44470;53.206;-6.106;2023-02-25T06:48:34;102093.56;;;17.96;52.16
58690;BME280;44470;53.206;-6.106;2023-02-25T06:50:59;102098.97;;;18.01;52.08
58690;BME280;44470;53.206;-6.106;2023-02-25T06:53:26;102104.28;;;18.01;52.24
58690;BME280;44470;53.206;-6.106;2023-02-25T06:55:52;102102.44;;;17.97;51.92
58690;BME280;44470;53.206;-6.106;2023-02-25T06:58:18;102109.63;;;18.01;52.16
58690;BME280;44470;53.206;-6.106;2023-02-25T07:00:43;102110.47;;;18.00;52.17
58690;BME280;44470;53.206;-6.106;2023-02-25T07:03:12;102104.25;;;17.99;52.03
58690;BME280;44470;53.206;-6.106;2023-02-25T07:05:38;102104.22;;;17.96;52.06
58690;BME280;44470;53.206;-6.106;2023-02-25T07:08:04;102109.69;;;18.04;52.10
58690;BME280;44470;53.206;-6.106;2023-02-25T07:10:30;102112.28;;;18.01;51.99
58690;BME280;44470;53.206;-6.106;2023-02-25T07:12:55;102114.94;;;18.01;52.18
58690;BME280;44470;53.206;-6.106;2023-02-25T07:15:21;102120.34;;;18.04;52.09
58690;BME280;44470;53.206;-6.106;2023-02-25T07:17:47;102129.19;;;18.05;51.86
58690;BME280;44470;53.206;-6.106;2023-02-25T07:20:12;102131.91;;;18.06;52.11
58690;BME280;44470;53.206;-6.106;2023-02-25T07:22:38;102128.31;;;18.06;52.08
58690;BME280;44470;53.206;-6.106;2023-02-25T07:25:07;102137.25;;;18.09;52.20
58690;BME280;44470;53.206;-6.106;2023-02-25T07:27:33;102134.56;;;18.08;52.10
58690;BME280;44470;53.206;-6.106;2023-02-25T07:29:58;102140.81;;;18.08;52.06
58690;BME280;44470;53.206;-6.106;2023-02-25T07:32:25;102133.69;;;18.07;52.00
58690;BME280;44470;53.206;-6.106;2023-02-25T07:34:51;102140.81;;;18.08;51.69
58690;BME280;44470;53.206;-6.106;2023-02-25T07:37:17;102130.03;;;18.02;51.93
58690;BME280;44470;53.206;-6.106;2023-02-25T07:39:42;102139.88;;;18.08;51.57
58690;BME280;44470;53.206;-6.106;2023-02-25T07:42:08;102142.59;;;18.09;51.73
58690;BME280;44470;53.206;-6.106;2023-02-25T07:44:35;102143.50;;;18.11;51.74
58690;BME280;44470;53.206;-6.106;2023-02-25T07:47:00;102141.72;;;18.10;51.81
58690;BME280;44470;53.206;-6.106;2023-02-25T07:49:26;102139.91;;;18.11;51.47
58690;BME280;44470;53.206;-6.106;2023-02-25T07:51:51;102147.03;;;18.10;51.73
58690;BME280;44470;53.206;-6.106;2023-02-25T07:54:17;102146.16;;;18.11;51.71
58690;BME280;44470;53.206;-6.106;2023-02-25T07:56:45;102149.69;;;18.10;51.58
58690;BME280;44470;53.206;-6.106;2023-02-25T07:59:11;102155.03;;;18.10;51.63
58690;BME280;44470;53.206;-6.106;2023-02-25T08:01:36;102162.16;;;18.11;51.47
58690;BME280;44470;53.206;-6.106;2023-02-25T08:04:04;102162.16;;;18.13;51.49
58690;BME280;44470;53.206;-6.106;2023-02-25T08:06:30;102163.06;;;18.15;51.56
58690;BME280;44470;53.206;-6.106;2023-02-25T08:08:56;102161.25;;;18.14;51.50
58690;BME280;44470;53.206;-6.106;2023-02-25T08:11:23;102160.38;;;18.13;52.00
58690;BME280;44470;53.206;-6.106;2023-02-25T08:13:49;102163.94;;;18.12;51.63
58690;BME280;44470;53.206;-6.106;2023-02-25T08:16:17;102158.56;;;18.09;51.71
58690;BME280;44470;53.206;-6.106;2023-02-25T08:18:42;102156.78;;;18.10;51.79
58690;BME280;44470;53.206;-6.106;2023-02-25T08:21:13;102172.84;;;18.14;51.70
58690;BME280;44470;53.206;-6.106;2023-02-25T08:23:39;102171.03;;;18.15;51.90
58690;BME280;44470;53.206;-6.106;2023-02-25T08:26:05;102183.50;;;18.14;51.68
58690;BME280;44470;53.206;-6.106;2023-02-25T08:28:31;102181.69;;;18.13;51.88
58690;BME280;44470;53.206;-6.106;2023-02-25T08:30:58;102175.47;;;18.11;51.81
58690;BME280;44470;53.206;-6.106;2023-02-25T08:33:24;102172.81;;;18.11;51.64
58690;BME280;44470;53.206;-6.106;2023-02-25T08:35:50;102187.94;;;18.17;51.78
58690;BME280;44470;53.206;-6.106;2023-02-25T08:38:17;102187.06;;;18.17;51.66
58690;BME280;44470;53.206;-6.106;2023-02-25T08:40:42;102186.19;;;18.18;51.77
58690;BME280;44470;53.206;-6.106;2023-02-25T08:43:08;102186.16;;;18.16;51.83
58690;BME280;44470;53.206;-6.106;2023-02-25T08:45:36;102198.63;;;18.20;51.62
58690;BME280;44470;53.206;-6.106;2023-02-25T08:48:02;102198.66;;;18.22;51.96
58690;BME280;44470;53.206;-6.106;2023-02-25T08:50:27;102188.84;;;18.18;51.84
58690;BME280;44470;53.206;-6.106;2023-02-25T08:52:54;102197.75;;;18.20;51.93
58690;BME280;44470;53.206;-6.106;2023-02-25T08:55:19;102203.09;;;18.20;51.76
58690;BME280;44470;53.206;-6.106;2023-02-25T08:57:49;102196.88;;;18.21;51.72
58690;BME280;44470;53.206;-6.106;2023-02-25T09:00:15;102194.22;;;18.21;51.45
58690;BME280;44470;53.206;-6.106;2023-02-25T09:02:41;102188.81;;;18.16;51.62
58690;BME280;44470;53.206;-6.106;2023-02-25T09:05:07;102205.75;;;18.21;51.70
58690;BME280;44470;53.206;-6.106;2023-02-25T09:07:33;102211.06;;;18.21;51.73
58690;BME280;44470;53.206;-6.106;2023-02-25T09:09:58;102212.00;;;18.22;51.70
58690;BME280;44470;53.206;-6.106;2023-02-25T09:12:24;102213.78;;;18.23;51.84
58690;BME280;44470;53.206;-6.106;2023-02-25T09:14:50;102220.91;;;18.24;51.65
58690;BME280;44470;53.206;-6.106;2023-02-25T09:17:15;102203.97;;;18.20;51.87
58690;BME280;44470;53.206;-6.106;2023-02-25T09:19:41;102213.81;;;18.26;51.45
58690;BME280;44470;53.206;-6.106;2023-02-25T09:22:08;102215.59;;;18.27;51.64
58690;BME280;44470;53.206;-6.106;2023-02-25T09:24:34;102215.59;;;18.27;51.62
58690;BME280;44470;53.206;-6.106;2023-02-25T09:27:01;102220.00;;;18.25;51.53
58690;BME280;44470;53.206;-6.106;2023-02-25T09:29:33;102220.91;;;18.27;51.32
58690;BME280;44470;53.206;-6.106;2023-02-25T09:31:58;102220.91;;;18.27;51.44
58690;BME280;44470;53.206;-6.106;2023-02-25T09:34:24;102222.72;;;18.28;51.27
58690;BME280;44470;53.206;-6.106;2023-02-25T09:36:49;102227.13;;;18.27;51.80
58690;BME280;44470;53.206;-6.106;2023-02-25T09:39:15;102219.13;;;18.26;51.59
58690;BME280;44470;53.206;-6.106;2023-02-25T09:41:59;102224.50;;;18.29;51.58
58690;BME280;44470;53.206;-6.106;2023-02-25T09:44:58;102227.16;;;18.29;51.51
58690;BME280;44470;53.206;-6.106;2023-02-25T09:57:37;102226.28;;;18.30;51.51
58690;BME280;44470;53.206;-6.106;2023-02-25T10:00:14;102228.97;;;18.32;51.46
58690;BME280;44470;53.206;-6.106;2023-02-25T10:02:59;102225.41;;;18.29;51.65
58690;BME280;44470;53.206;-6.106;2023-02-25T10:05:45;102227.19;;;18.32;51.51
58690;BME280;44470;53.206;-6.106;2023-02-25T10:18:52;102241.47;;;18.36;51.39
58690;BME280;44470;53.206;-6.106;2023-02-25T10:21:38;102238.75;;;18.34;51.37
58690;BME280;44470;53.206;-6.106;2023-02-25T10:26:46;102238.78;;;18.36;51.51
58690;BME280;44470;53.206;-6.106;2023-02-25T10:29:44;102244.13;;;18.37;51.44
58690;BME280;44470;53.206;-6.106;2023-02-25T10:32:25;102237.00;;;18.36;51.31
58690;BME280;44470;53.206;-6.106;2023-02-25T10:34:54;102245.91;;;18.38;51.31
58690;BME280;44470;53.206;-6.106;2023-02-25T10:37:35;102245.03;;;18.38;51.44
58690;BME280;44470;53.206;-6.106;2023-02-25T10:40:04;102260.16;;;18.39;51.36
58690;BME280;44470;53.206;-6.106;2023-02-25T10:42:35;102245.84;;;18.32;51.40
58690;BME280;44470;53.206;-6.106;2023-02-25T10:45:07;102251.25;;;18.38;51.36
58690;BME280;44470;53.206;-6.106;2023-02-25T10:47:36;102252.16;;;18.40;51.29
58690;BME280;44470;53.206;-6.106;2023-02-25T10:50:15;102246.78;;;18.36;51.36
58690;BME280;44470;53.206;-6.106;2023-02-25T10:52:55;102254.81;;;18.40;51.20
58690;BME280;44470;53.206;-6.106;2023-02-25T10:57:50;102254.81;;;18.40;51.11
58690;BME280;44470;53.206;-6.106;2023-02-25T11:00:28;102247.72;;;18.41;51.26
58690;BME280;44470;53.206;-6.106;2023-02-25T11:02:54;102251.28;;;18.41;51.44
58690;BME280;44470;53.206;-6.106;2023-02-25T11:05:40;102247.66;;;18.36;51.35
58690;BME280;44470;53.206;-6.106;2023-02-25T11:08:31;102251.28;;;18.41;51.18
58690;BME280;44470;53.206;-6.106;2023-02-25T11:11:15;102249.53;;;18.43;51.45
58690;BME280;44470;53.206;-6.106;2023-02-25T11:13:42;102247.69;;;18.39;51.19
58690;BME280;44470;53.206;-6.106;2023-02-25T11:16:10;102248.59;;;18.41;51.40
58690;BME280;44470;53.206;-6.106;2023-02-25T11:18:37;102245.97;;;18.44;51.02
58690;BME280;44470;53.206;-6.106;2023-02-25T11:21:06;102257.56;;;18.45;51.28
58690;BME280;44470;53.206;-6.106;2023-02-25T11:26:07;102260.22;;;18.47;51.22
58690;BME280;44470;53.206;-6.106;2023-02-25T11:28:38;102254.88;;;18.47;51.35
58690;BME280;44470;53.206;-6.106;2023-02-25T11:31:11;102250.47;;;18.47;51.25
58690;BME280;44470;53.206;-6.106;2023-02-25T11:33:42;102259.34;;;18.48;51.11
58690;BME280;44470;53.206;-6.106;2023-02-25T11:36:09;102262.91;;;18.48;51.14
58690;BME280;44470;53.206;-6.106;2023-02-25T11:38:37;102254.88;;;18.47;51.22
58690;BME280;44470;53.206;-6.106;2023-02-25T11:41:16;102265.56;;;18.50;51.26
58690;BME280;44470;53.206;-6.106;2023-02-25T11:43:44;102259.38;;;18.49;50.91
58690;BME280;44470;53.206;-6.106;2023-02-25T11:46:21;102259.38;;;18.49;50.90
58690;BME280;44470;53.206;-6.106;2023-02-25T11:51:26;102254.00;;;18.48;50.94
58690;BME280;44470;53.206;-6.106;2023-02-25T11:56:57;102267.38;;;18.51;50.91
58690;BME280;44470;53.206;-6.106;2023-02-25T11:59:35;102265.53;;;18.45;51.04
58690;BME280;44470;53.206;-6.106;2023-02-25T12:07:46;102270.94;;;18.53;51.09
58690;BME280;44470;53.206;-6.106;2023-02-25T12:18:40;102270.94;;;18.53;51.08
58690;BME280;44470;53.206;-6.106;2023-02-25T12:35:16;102263.00;;;18.57;50.99
58690;BME280;44470;53.206;-6.106;2023-02-25T12:49:33;102271.06;;;18.62;50.80
58690;BME280;44470;53.206;-6.106;2023-02-25T12:57:43;102254.16;;;18.60;50.96
58690;BME280;44470;53.206;-6.106;2023-02-25T13:21:15;102245.28;;;18.63;50.94
58690;BME280;44470;53.206;-6.106;2023-02-25T13:36:51;102242.66;;;18.67;50.81
58690;BME280;44470;53.206;-6.106;2023-02-25T13:45:32;102244.44;;;18.68;50.71
58690;BME280;44470;53.206;-6.106;2023-02-25T13:54:00;102237.34;;;18.70;50.96
58690;BME280;44470;53.206;-6.106;2023-02-25T14:10:37;102231.13;;;18.73;50.82
58690;BME280;44470;53.206;-6.106;2023-02-25T14:21:53;102220.50;;;18.74;50.57
58690;BME280;44470;53.206;-6.106;2023-02-25T14:24:35;102236.47;;;18.73;50.96
58690;BME280;44470;53.206;-6.106;2023-02-25T14:41:34;102239.16;;;18.74;50.78
58690;BME280;44470;53.206;-6.106;2023-02-25T14:44:12;102224.03;;;18.75;50.89
58690;BME280;44470;53.206;-6.106;2023-02-25T14:46:44;102229.41;;;18.77;50.80
58690;BME280;44470;53.206;-6.106;2023-02-25T14:58:27;102236.53;;;18.78;50.71
58690;BME280;44470;53.206;-6.106;2023-02-25T15:06:37;102237.41;;;18.78;50.97
58690;BME280;44470;53.206;-6.106;2023-02-25T15:20:21;102240.09;;;18.80;50.82
58690;BME280;44470;53.206;-6.106;2023-02-25T15:23:07;102239.22;;;18.81;50.79
58690;BME280;44470;53.206;-6.106;2023-02-25T15:25:51;102246.34;;;18.82;50.62
58690;BME280;44470;53.206;-6.106;2023-02-25T15:28:34;102246.38;;;18.85;50.71
58690;BME280;44470;53.206;-6.106;2023-02-25T15:35:58;102244.59;;;18.87;50.31
58690;BME280;44470;53.206;-6.106;2023-02-25T15:43:56;102252.63;;;18.85;50.41
58690;BME280;44470;53.206;-6.106;2023-02-25T15:46:35;102246.38;;;18.83;50.76
58690;BME280;44470;53.206;-6.106;2023-02-25T15:56:59;102244.56;;;18.84;50.23
58690;BME280;44470;53.206;-6.106;2023-02-25T16:10:18;102252.63;;;18.85;50.77
58690;BME280;44470;53.206;-6.106;2023-02-25T16:12:52;102265.06;;;18.86;50.81
58690;BME280;44470;53.206;-6.106;2023-02-25T16:17:45;102263.28;;;18.85;50.41
58690;BME280;44470;53.206;-6.106;2023-02-25T16:20:24;102270.41;;;18.86;50.56
58690;BME280;44470;53.206;-6.106;2023-02-25T16:22:59;102272.16;;;18.86;50.50
58690;BME280;44470;53.206;-6.106;2023-02-25T16:25:55;102278.44;;;18.90;50.64
58690;BME280;44470;53.206;-6.106;2023-02-25T16:36:14;102291.78;;;18.91;50.33
58690;BME280;44470;53.206;-6.106;2023-02-25T16:38:49;102285.56;;;18.91;50.45
58690;BME280;44470;53.206;-6.106;2023-02-25T16:41:21;102286.44;;;18.91;50.47
58690;BME280;44470;53.206;-6.106;2023-02-25T16:43:47;102289.09;;;18.91;50.47
58690;BME280;44470;53.206;-6.106;2023-02-25T16:46:15;102288.19;;;18.89;50.37
58690;BME280;44470;53.206;-6.106;2023-02-25T16:48:52;102296.22;;;18.92;50.29
58690;BME280;44470;53.206;-6.106;2023-02-25T16:51:24;102301.56;;;18.91;50.34
58690;BME280;44470;53.206;-6.106;2023-02-25T16:54:07;102304.22;;;18.91;50.55
58690;BME280;44470;53.206;-6.106;2023-02-25T16:56:34;102306.91;;;18.92;50.59
58690;BME280;44470;53.206;-6.106;2023-02-25T16:59:04;102306.00;;;18.93;50.75
58690;BME280;44470;53.206;-6.106;2023-02-25T17:01:32;102303.31;;;18.90;50.33